createdAt,value
2022-11-18T04:50:54.748Z,21.87
2022-11-18T04:53:24.564Z,21.67
2022-11-18T04:55:54.917Z,21.83
2022-11-18T04:58:23.829Z,22.47
2022-11-18T05:00:52.683Z,21.93
2022-11-18T05:03:21.563Z,22.73
2022-11-18T05:05:57.084Z,22.10
2022-11-18T05:08:25.886Z,23.20
2022-11-18T05:11:15.712Z,21.60
2022-11-18T05:13:43.367Z,21.90
2022-11-18T05:16:13.478Z,22.30
2022-11-18T05:18:42.235Z,22.27
2022-11-18T05:21:12.627Z,23.17
2022-11-18T05:23:42.902Z,23.40
2022-11-18T05:26:12.738Z,23.67
2022-11-18T05:28:41.317Z,23.50
2022-11-18T05:31:10.643Z,22.87
2022-11-18T05:33:40.070Z,24.57
2022-11-18T05:36:15.908Z,24.13
2022-11-18T05:38:44.731Z,24.80
2022-11-18T05:41:35.129Z,24.90
2022-11-18T05:44:04.050Z,24.47
2022-11-18T05:46:34.235Z,23.47
2022-11-18T05:49:05.184Z,23.40
2022-11-18T05:51:35.220Z,24.67
2022-11-18T05:54:06.615Z,25.93
2022-11-18T05:56:40.809Z,23.37
2022-11-18T05:59:09.650Z,24.30
2022-11-18T06:01:43.405Z,24.37
2022-11-18T06:04:18.542Z,22.40
2022-11-18T06:06:51.062Z,22.77
2022-11-18T06:09:25.543Z,22.27
2022-11-18T06:11:57.840Z,21.77
2022-11-18T06:14:31.317Z,20.50
2022-11-18T06:17:04.669Z,20.57
2022-11-18T06:19:34.505Z,20.40
2022-11-18T06:22:06.048Z,19.50
2022-11-18T06:24:35.534Z,21.20
2022-11-18T06:27:05.043Z,19.80
2022-11-18T06:29:33.785Z,19.97
2022-11-18T06:32:02.304Z,18.70
2022-11-18T06:34:31.076Z,19.57
2022-11-18T06:36:59.868Z,18.73
2022-11-18T06:39:31.929Z,18.53
2022-11-18T06:42:00.562Z,17.57
2022-11-18T06:44:28.024Z,17.70
2022-11-18T06:46:59.908Z,17.93
2022-11-18T06:49:29.251Z,18.23
2022-11-18T06:51:57.901Z,16.83
2022-11-18T06:54:26.579Z,17.03
2022-11-18T06:56:56.609Z,17.40
2022-11-18T06:59:25.183Z,16.63
2022-11-18T07:01:54.720Z,17.47
2022-11-18T07:04:23.513Z,16.90
2022-11-18T07:06:52.690Z,16.90
2022-11-18T07:09:21.611Z,16.70
2022-11-18T07:11:50.243Z,16.53
2022-11-18T07:14:20.404Z,17.00
2022-11-18T07:16:48.920Z,16.13
2022-11-18T07:19:22.664Z,17.57
2022-11-18T07:21:51.321Z,17.07
2022-11-18T07:24:25.216Z,17.50
2022-11-18T07:26:55.207Z,17.00
2022-11-18T07:29:29.761Z,15.70
2022-11-18T07:31:58.577Z,17.33
2022-11-18T07:34:27.249Z,18.17
2022-11-18T07:36:55.875Z,17.53
2022-11-18T07:39:24.583Z,17.87
2022-11-18T07:41:53.065Z,17.70
2022-11-18T07:44:21.930Z,16.43
2022-11-18T07:46:51.939Z,16.97
2022-11-18T07:49:20.625Z,17.40
2022-11-18T07:51:49.737Z,17.07
2022-11-18T07:54:20.125Z,17.77
2022-11-18T07:56:48.910Z,16.90
2022-11-18T07:59:18.056Z,16.97
2022-11-18T08:01:48.329Z,16.40
2022-11-18T08:04:19.738Z,17.17
2022-11-18T08:06:49.165Z,15.73
2022-11-18T08:09:18.310Z,16.37
2022-11-18T08:11:47.456Z,16.23
2022-11-18T08:14:18.413Z,16.30
2022-11-18T08:16:47.359Z,15.60
2022-11-18T08:19:16.307Z,16.23
2022-11-18T08:21:46.888Z,17.67
2022-11-18T08:24:15.832Z,16.50
2022-11-18T08:26:44.760Z,16.33
2022-11-18T08:29:13.729Z,17.13
2022-11-18T08:31:42.701Z,17.13
2022-11-18T08:34:11.530Z,16.60
2022-11-18T08:36:40.833Z,16.57
2022-11-18T08:39:13.777Z,16.70
2022-11-18T08:41:45.636Z,16.27
2022-11-18T08:44:16.244Z,15.90
2022-11-18T08:46:46.458Z,14.90
2022-11-18T08:49:15.825Z,15.50
2022-11-18T08:51:44.952Z,16.80
2022-11-18T08:54:15.250Z,15.40
2022-11-18T08:56:44.123Z,15.23
2022-11-18T08:59:13.088Z,15.37
2022-11-18T09:01:43.872Z,14.87
2022-11-18T09:04:13.592Z,15.10
2022-11-18T09:06:44.512Z,14.60
2022-11-18T09:09:14.800Z,14.80
2022-11-18T09:11:43.729Z,15.13
2022-11-18T09:15:11.943Z,15.13
2022-11-18T09:17:02.992Z,15.53
2022-11-18T09:19:48.360Z,14.63
2022-11-18T09:22:17.603Z,14.60
2022-11-18T09:24:48.032Z,13.93
2022-11-18T09:27:18.316Z,14.53
2022-11-18T09:29:47.483Z,14.57
2022-11-18T09:32:16.489Z,15.27
2022-11-18T09:34:45.313Z,13.90
2022-11-18T09:37:14.169Z,14.57
2022-11-18T09:39:43.032Z,15.53
2022-11-18T09:42:29.832Z,14.27
2022-11-18T09:45:17.089Z,14.37
2022-11-18T09:47:48.360Z,13.67
2022-11-18T09:50:49.093Z,14.23
2022-11-18T09:53:19.452Z,13.27
2022-11-18T09:55:49.957Z,14.20
2022-11-18T09:58:34.240Z,14.20
2022-11-18T10:01:05.200Z,11.73
2022-11-18T10:03:35.123Z,12.23
2022-11-18T10:06:23.600Z,11.33
2022-11-18T10:09:14.552Z,11.17
2022-11-18T10:12:10.888Z,11.37
2022-11-18T10:14:59.392Z,11.57
2022-11-18T10:17:40.042Z,10.67
2022-11-18T10:20:24.760Z,10.20
2022-11-18T10:22:57.960Z,9.93
2022-11-18T10:25:27.272Z,9.53
2022-11-18T10:27:57.872Z,9.13
2022-11-18T10:30:28.488Z,9.33
2022-11-18T10:33:02.154Z,8.57
2022-11-18T10:35:33.603Z,8.97
2022-11-18T10:38:08.984Z,8.77
2022-11-18T10:40:44.161Z,7.77
2022-11-18T10:43:36.854Z,8.13
2022-11-18T10:46:19.432Z,8.27
2022-11-18T10:48:48.321Z,7.50
2022-11-18T10:51:24.275Z,8.33
2022-11-18T10:53:53.274Z,7.80
2022-11-18T10:56:21.955Z,7.77
2022-11-18T10:58:52.961Z,8.40
2022-11-18T11:01:24.841Z,8.10
2022-11-18T11:04:01.374Z,7.53
2022-11-18T11:06:33.608Z,8.40
2022-11-18T11:09:10.690Z,8.27
2022-11-18T11:11:43.568Z,6.97
2022-11-18T11:14:23.914Z,7.27
2022-11-18T11:17:13.850Z,7.13
2022-11-18T11:19:50.632Z,7.10
2022-11-18T11:22:19.682Z,7.73
2022-11-18T11:24:49.079Z,7.90
2022-11-18T11:30:25.112Z,7.40
2022-11-18T11:33:20.734Z,7.30
2022-11-18T11:36:09.721Z,8.43
2022-11-18T11:38:53.559Z,8.30
2022-11-18T11:41:24.838Z,8.20
2022-11-18T11:44:13.880Z,8.40
2022-11-18T11:47:09.482Z,7.83
2022-11-18T11:49:50.924Z,8.53
2022-11-18T11:52:31.119Z,8.10
2022-11-18T11:55:12.207Z,8.10
2022-11-18T11:57:59.130Z,7.73
2022-11-18T12:00:29.070Z,7.60
2022-11-18T12:03:15.935Z,8.33
2022-11-18T12:06:19.928Z,7.67
2022-11-18T12:09:00.831Z,8.30
2022-11-18T12:11:35.673Z,8.07
2022-11-18T12:14:09.591Z,7.57
2022-11-18T12:16:44.671Z,8.60
2022-11-18T12:19:16.972Z,7.47
2022-11-18T12:22:00.807Z,8.00
2022-11-18T12:24:32.681Z,8.07
2022-11-18T12:27:03.168Z,7.63
2022-11-18T12:29:38.511Z,8.30
2022-11-18T12:32:32.079Z,8.33
2022-11-18T12:35:04.161Z,8.03
2022-11-18T12:37:46.690Z,7.30
2022-11-18T12:40:48.792Z,6.90
2022-11-18T12:43:51.561Z,7.70
2022-11-18T12:46:52.359Z,7.00
2022-11-18T12:50:12.996Z,6.90
2022-11-18T12:52:54.271Z,6.50
2022-11-18T12:55:34.792Z,7.20
2022-11-18T12:58:03.840Z,6.63
2022-11-18T13:00:52.939Z,6.80
2022-11-18T13:03:29.048Z,6.80
2022-11-18T13:06:14.454Z,6.20
2022-11-18T13:08:44.719Z,6.60
2022-11-18T13:11:36.047Z,6.10
2022-11-18T13:14:23.527Z,6.60
2022-11-18T13:17:06.288Z,6.77
2022-11-18T13:19:35.032Z,6.37
2022-11-18T13:22:21.531Z,6.63
2022-11-18T13:24:53.081Z,5.97
2022-11-18T13:27:32.959Z,6.43
2022-11-18T13:30:05.792Z,6.50
2022-11-18T13:32:35.040Z,5.90
2022-11-18T13:35:16.795Z,6.10
2022-11-18T13:37:54.315Z,6.60
2022-11-18T13:40:28.033Z,5.83
2022-11-18T13:42:58.011Z,6.10
2022-11-18T13:45:28.854Z,6.50
2022-11-18T13:48:03.273Z,6.23
2022-11-18T13:50:41.954Z,5.97
2022-11-18T13:53:25.114Z,6.13
2022-11-18T13:56:01.892Z,5.40
2022-11-18T13:58:55.786Z,6.77
2022-11-18T14:01:26.856Z,6.37
2022-11-18T14:03:58.801Z,6.17
2022-11-18T14:06:46.013Z,5.77
2022-11-18T14:09:25.635Z,6.50
2022-11-18T14:12:05.716Z,5.73
2022-11-18T14:14:36.090Z,6.00
2022-11-18T14:17:18.993Z,6.50
2022-11-18T14:19:49.010Z,5.70
2022-11-18T14:22:21.017Z,5.80
2022-11-18T14:24:57.130Z,5.20
2022-11-18T14:27:42.444Z,5.50
2022-11-18T14:30:35.981Z,5.50
2022-11-18T14:33:20.720Z,4.80
2022-11-18T14:35:58.352Z,5.13
2022-11-18T14:38:48.190Z,5.10
2022-11-18T14:41:50.052Z,5.53
2022-11-18T14:44:24.634Z,5.60
2022-11-18T14:47:06.634Z,5.37
2022-11-18T14:49:35.610Z,5.60
2022-11-18T14:52:04.813Z,5.63
2022-11-18T14:54:36.448Z,5.30
2022-11-18T14:57:07.073Z,5.53
2022-11-18T14:59:37.840Z,5.27
2022-11-18T15:02:06.672Z,5.30
2022-11-18T15:04:35.369Z,5.60
2022-11-18T15:07:04.350Z,4.90
2022-11-18T15:09:34.323Z,3.90
2022-11-18T15:12:06.323Z,4.33
2022-11-18T15:14:36.720Z,3.70
2022-11-18T15:17:06.360Z,4.63
2022-11-18T15:19:37.317Z,3.73
2022-11-18T15:22:07.603Z,3.43
2022-11-18T15:24:39.232Z,4.13
2022-11-18T15:27:09.032Z,3.87
2022-11-18T15:29:39.241Z,3.83
2022-11-18T15:32:08.127Z,4.27
2022-11-18T15:34:37.161Z,5.20
2022-11-18T15:37:06.160Z,3.80
2022-11-18T15:39:34.993Z,4.53
2022-11-18T15:42:04.120Z,4.33
2022-11-18T15:44:33.279Z,4.17
2022-11-18T15:47:03.569Z,4.47
2022-11-18T15:49:32.878Z,3.90
2022-11-18T15:52:01.954Z,3.90
2022-11-18T15:54:30.736Z,3.90
2022-11-18T15:56:59.407Z,4.40
2022-11-18T15:59:28.103Z,4.20
2022-11-18T16:01:58.064Z,4.33
2022-11-18T16:04:28.676Z,4.20
2022-11-18T16:06:58.039Z,4.60
2022-11-18T16:09:46.996Z,4.30
2022-11-18T16:12:33.131Z,4.93
2022-11-18T16:15:19.272Z,4.67
2022-11-18T16:17:53.790Z,4.53
2022-11-18T16:20:23.970Z,4.50
2022-11-18T16:22:54.503Z,4.63
2022-11-18T16:25:23.567Z,5.07
2022-11-18T16:27:55.511Z,4.93
2022-11-18T16:30:43.461Z,5.37
2022-11-18T16:33:12.259Z,6.70
2022-11-18T16:35:49.761Z,7.63
2022-11-18T16:38:18.583Z,7.23
2022-11-18T16:40:57.790Z,6.63
2022-11-18T16:43:27.032Z,7.10
2022-11-18T16:45:58.857Z,7.60
2022-11-18T16:48:27.482Z,7.37
2022-11-18T16:51:19.461Z,6.90
2022-11-18T16:53:55.596Z,7.77
2022-11-18T16:56:25.954Z,8.30
2022-11-18T16:58:59.695Z,6.57
2022-11-18T17:01:29.992Z,6.93
2022-11-18T17:04:00.827Z,6.10
2022-11-18T17:06:33.354Z,5.47
2022-11-18T17:09:02.441Z,6.13
2022-11-18T17:11:34.953Z,5.17
2022-11-18T17:14:03.532Z,5.40
2022-11-18T17:16:34.708Z,5.40
2022-11-18T17:19:10.171Z,5.67
2022-11-18T17:21:42.052Z,6.10
2022-11-18T17:24:12.308Z,5.23
2022-11-18T17:26:41.736Z,5.43
2022-11-18T17:29:12.940Z,5.13
2022-11-18T17:31:43.142Z,5.40
2022-11-18T17:34:13.256Z,5.37
2022-11-18T17:36:49.259Z,5.20
2022-11-18T17:39:20.919Z,4.63
2022-11-18T17:42:07.252Z,5.90
2022-11-18T17:44:36.593Z,5.23
2022-11-18T17:47:09.042Z,5.33
2022-11-18T17:49:43.575Z,4.93
2022-11-18T17:52:14.667Z,5.07
2022-11-18T17:54:43.272Z,4.97
2022-11-18T17:57:12.464Z,4.93
2022-11-18T17:59:41.360Z,5.10
2022-11-18T18:02:13.206Z,5.17
2022-11-18T18:04:44.202Z,5.77
2022-11-18T18:07:14.347Z,5.40
2022-11-18T18:09:43.013Z,5.73
2022-11-18T18:12:29.762Z,5.80
2022-11-18T18:15:04.174Z,5.60
2022-11-18T18:17:38.632Z,6.07
2022-11-18T18:20:08.051Z,5.57
2022-11-18T18:22:38.200Z,5.80
2022-11-18T18:25:07.893Z,5.60
2022-11-18T18:27:36.701Z,5.30
2022-11-18T18:30:06.048Z,5.97
2022-11-18T18:32:36.477Z,6.00
2022-11-18T18:35:06.882Z,5.93
2022-11-18T18:37:42.599Z,5.50
2022-11-18T18:40:11.870Z,5.93
2022-11-18T18:42:40.326Z,5.60
2022-11-18T18:45:28.410Z,5.93
2022-11-18T18:48:04.042Z,6.60
2022-11-18T18:50:33.829Z,6.57
2022-11-18T18:53:06.797Z,6.47
2022-11-18T18:55:38.147Z,6.33
2022-11-18T18:58:09.339Z,6.30
2022-11-18T19:00:38.013Z,6.50
2022-11-18T19:03:06.662Z,6.93
2022-11-18T19:06:03.694Z,5.83
2022-11-18T19:08:25.220Z,6.30
2022-11-18T19:10:54.017Z,6.70
2022-11-18T19:13:21.547Z,6.00
2022-11-18T19:15:50.322Z,6.93
2022-11-18T19:18:19.113Z,6.07
2022-11-18T19:20:47.868Z,6.73
2022-11-18T19:23:17.641Z,6.53
2022-11-18T19:25:47.545Z,7.00
2022-11-18T19:28:16.268Z,6.90
2022-11-18T19:30:45.017Z,7.10
2022-11-18T19:33:13.483Z,6.40
2022-11-18T19:35:41.934Z,7.20
2022-11-18T19:38:10.369Z,6.53
2022-11-18T19:40:38.865Z,7.27
2022-11-18T19:43:09.101Z,8.63
2022-11-18T19:45:37.737Z,7.93
2022-11-18T19:48:06.799Z,7.83
2022-11-18T19:50:35.406Z,7.20
2022-11-18T19:53:24.065Z,7.37
2022-11-18T19:55:56.322Z,7.47
2022-11-18T19:58:27.154Z,6.80
2022-11-18T20:00:57.390Z,7.20
2022-11-18T20:03:29.163Z,6.77
2022-11-18T20:06:04.037Z,6.63
2022-11-18T20:08:35.449Z,6.40
2022-11-18T20:11:09.211Z,6.03
2022-11-18T20:13:40.761Z,6.17
2022-11-18T20:16:12.143Z,6.43
2022-11-18T20:18:48.960Z,5.73
2022-11-18T20:21:21.099Z,5.80
2022-11-18T20:23:53.562Z,6.87
2022-11-18T20:26:23.636Z,6.40
2022-11-18T20:28:57.416Z,6.10
2022-11-18T20:31:28.048Z,6.13
2022-11-18T20:33:58.527Z,6.97
2022-11-18T20:36:29.022Z,7.47
2022-11-18T20:38:59.194Z,7.43
2022-11-18T20:41:30.509Z,7.57
2022-11-18T20:44:01.170Z,9.37
2022-11-18T20:46:30.442Z,9.57
2022-11-18T20:48:59.968Z,8.90
2022-11-18T20:51:29.938Z,9.33
2022-11-18T20:54:00.228Z,8.63
2022-11-18T20:56:30.546Z,9.40
2022-11-18T20:59:00.503Z,9.13
2022-11-18T21:01:30.636Z,8.53
2022-11-18T21:04:01.081Z,10.73
2022-11-18T21:06:33.373Z,10.07
2022-11-18T21:09:03.858Z,15.10
2022-11-18T21:11:37.086Z,13.43
2022-11-18T21:14:24.755Z,12.93
2022-11-18T21:16:55.470Z,10.40
2022-11-18T21:19:26.349Z,11.30
2022-11-18T21:22:02.584Z,10.27
2022-11-18T21:24:32.887Z,10.87
2022-11-18T21:27:02.807Z,10.50
2022-11-18T21:29:34.413Z,10.37
2022-11-18T21:32:03.291Z,12.97
2022-11-18T21:34:32.161Z,11.90
2022-11-18T21:37:00.825Z,9.97
2022-11-18T21:39:29.419Z,10.93
2022-11-18T21:41:59.517Z,10.20
2022-11-18T21:44:33.928Z,10.50
2022-11-18T21:47:02.815Z,9.40
2022-11-18T21:49:31.270Z,9.40
2022-11-18T21:51:59.783Z,9.27
2022-11-18T21:54:28.136Z,8.73
2022-11-18T21:56:56.670Z,8.57
2022-11-18T21:59:25.212Z,8.27
2022-11-18T22:01:55.040Z,7.80
2022-11-18T22:04:41.133Z,7.43
2022-11-18T22:07:12.253Z,7.73
2022-11-18T22:09:40.643Z,8.03
2022-11-18T22:12:09.289Z,7.37
2022-11-18T22:14:38.483Z,7.97
2022-11-18T22:17:08.547Z,7.40
2022-11-18T22:19:37.073Z,7.77
2022-11-18T22:22:05.614Z,7.10
2022-11-18T22:24:34.205Z,7.80
2022-11-18T22:27:07.016Z,7.50
2022-11-18T22:29:38.460Z,7.33
2022-11-18T22:32:08.689Z,7.50
2022-11-18T22:34:37.273Z,7.07
2022-11-18T22:37:05.817Z,7.23
2022-11-18T22:39:34.260Z,8.10
2022-11-18T22:42:20.134Z,7.70
2022-11-18T22:44:48.625Z,8.47
2022-11-18T22:47:18.580Z,7.83
2022-11-18T22:49:47.519Z,7.93
2022-11-18T22:52:18.571Z,7.83
2022-11-18T22:54:49.556Z,7.90
2022-11-18T22:57:18.145Z,8.00
2022-11-18T22:59:46.702Z,7.93
2022-11-18T23:02:15.206Z,7.70
2022-11-18T23:04:45.098Z,7.90
2022-11-18T23:07:13.605Z,7.27
2022-11-18T23:09:44.393Z,7.80
2022-11-18T23:12:32.549Z,7.90
2022-11-18T23:15:01.252Z,7.30
2022-11-18T23:17:30.087Z,7.37
2022-11-18T23:20:00.303Z,6.77
2022-11-18T23:22:29.102Z,6.80
2022-11-18T23:24:57.833Z,7.47
2022-11-18T23:27:26.554Z,14.80
2022-11-18T23:29:55.051Z,10.50
2022-11-18T23:32:23.622Z,8.50
2022-11-18T23:34:52.758Z,7.93
2022-11-18T23:37:23.058Z,8.87
2022-11-18T23:39:52.266Z,9.57
2022-11-18T23:42:20.753Z,9.23
2022-11-18T23:44:53.078Z,9.60
2022-11-18T23:47:21.650Z,8.97
2022-11-18T23:49:50.096Z,9.57
